Terminal Aerodrome Forecast
Issued by NWS Jackson, MS

Home | Current Version | Previous Version | Text Only | Print | Product List | Glossary On
Versions: 1 2 3 4 5 6 7 8 9 10 11 12 13 14 15 16 17 18 19
000
FTUS44 KJAN 191434 AAA
TAFHBG
TAF AMD
KHBG 191434Z 1915/2012 25006KT 4SM HZ SCT025 BKN200
     FM191600 27012G18KT P6SM SCT040 BKN250
     FM200800 20006KT 4SM BR OVC015
     FM201000 23005KT 2SM BR OVC007=

USA.gov is the U.S. government's official web portal to all federal, state and local government web resources and services.